sensor_id;sensor_type;location;lat;lon;timestamp;pressure;altitude;pressure_sealevel;temperature;humidity
14790;BME280;7486;51.010;10.366;2023-10-19T00:00:28;96786.03;;;6.66;73.96
14790;BME280;7486;51.010;10.366;2023-10-19T00:03:13;96773.50;;;6.61;74.27
14790;BME280;7486;51.010;10.366;2023-10-19T00:05:59;96772.66;;;6.67;74.22
14790;BME280;7486;51.010;10.366;2023-10-19T00:08:45;96772.50;;;6.62;74.56
14790;BME280;7486;51.010;10.366;2023-10-19T00:11:30;96768.25;;;6.61;75.07
14790;BME280;7486;51.010;10.366;2023-10-19T00:14:15;96755.75;;;6.57;75.28
14790;BME280;7486;51.010;10.366;2023-10-19T00:17:00;96743.50;;;6.44;75.68
14790;BME280;7486;51.010;10.366;2023-10-19T00:19:46;96735.25;;;6.41;76.66
14790;BME280;7486;51.010;10.366;2023-10-19T00:22:31;96733.38;;;6.48;76.06
14790;BME280;7486;51.010;10.366;2023-10-19T00:25:17;96740.03;;;6.50;76.23
14790;BME280;7486;51.010;10.366;2023-10-19T00:28:03;96728.91;;;6.48;76.32
14790;BME280;7486;51.010;10.366;2023-10-19T00:30:48;96728.97;;;6.42;76.77
14790;BME280;7486;51.010;10.366;2023-10-19T00:33:34;96728.78;;;6.43;76.82
14790;BME280;7486;51.010;10.366;2023-10-19T00:36:21;96723.19;;;6.33;77.25
14790;BME280;7486;51.010;10.366;2023-10-19T00:39:06;96716.47;;;6.37;77.06
14790;BME280;7486;51.010;10.366;2023-10-19T00:41:52;96708.69;;;6.24;77.44
14790;BME280;7486;51.010;10.366;2023-10-19T00:44:38;96705.00;;;6.32;77.51
14790;BME280;7486;51.010;10.366;2023-10-19T00:47:25;96710.19;;;6.38;77.61
14790;BME280;7486;51.010;10.366;2023-10-19T00:50:10;96709.19;;;6.39;77.33
14790;BME280;7486;51.010;10.366;2023-10-19T00:52:55;96706.94;;;6.43;77.39
14790;BME280;7486;51.010;10.366;2023-10-19T00:55:41;96628.72;;;6.13;77.44
14790;BME280;7486;51.010;10.366;2023-10-19T00:58:26;96678.19;;;6.41;77.37
14790;BME280;7486;51.010;10.366;2023-10-19T01:01:11;96672.94;;;6.41;77.42
14790;BME280;7486;51.010;10.366;2023-10-19T01:03:57;96648.16;;;6.31;77.52
14790;BME280;7486;51.010;10.366;2023-10-19T01:06:43;96668.34;;;6.37;78.10
14790;BME280;7486;51.010;10.366;2023-10-19T01:09:28;96661.78;;;6.46;77.89
14790;BME280;7486;51.010;10.366;2023-10-19T01:12:14;96658.34;;;6.45;77.53
14790;BME280;7486;51.010;10.366;2023-10-19T01:15:13;96662.41;;;6.41;77.59
14790;BME280;7486;51.010;10.366;2023-10-19T01:17:59;96653.72;;;6.41;78.04
14790;BME280;7486;51.010;10.366;2023-10-19T01:20:45;96657.88;;;6.30;78.33
14790;BME280;7486;51.010;10.366;2023-10-19T01:23:30;96649.13;;;6.36;78.79
14790;BME280;7486;51.010;10.366;2023-10-19T01:26:16;96643.06;;;6.36;78.70
14790;BME280;7486;51.010;10.366;2023-10-19T01:29:01;96622.41;;;6.39;78.84
14790;BME280;7486;51.010;10.366;2023-10-19T01:31:47;96617.72;;;6.41;78.95
14790;BME280;7486;51.010;10.366;2023-10-19T01:34:32;96621.38;;;6.40;79.32
14790;BME280;7486;51.010;10.366;2023-10-19T01:37:18;96617.72;;;6.41;79.43
14790;BME280;7486;51.010;10.366;2023-10-19T01:40:04;96604.44;;;6.36;79.55
14790;BME280;7486;51.010;10.366;2023-10-19T01:42:49;96593.09;;;6.17;80.33
14790;BME280;7486;51.010;10.366;2023-10-19T01:45:35;96590.03;;;6.20;80.39
14790;BME280;7486;51.010;10.366;2023-10-19T01:48:20;96589.00;;;6.22;80.57
14790;BME280;7486;51.010;10.366;2023-10-19T01:51:07;96572.88;;;6.18;80.86
14790;BME280;7486;51.010;10.366;2023-10-19T01:53:53;96576.03;;;6.27;80.63
14790;BME280;7486;51.010;10.366;2023-10-19T01:56:38;96577.97;;;6.31;80.39
14790;BME280;7486;51.010;10.366;2023-10-19T01:59:26;96548.53;;;6.04;80.54
14790;BME280;7486;51.010;10.366;2023-10-19T02:02:12;96570.75;;;6.08;82.02
14790;BME280;7486;51.010;10.366;2023-10-19T02:04:58;96575.13;;;6.14;81.33
14790;BME280;7486;51.010;10.366;2023-10-19T02:07:43;96576.94;;;6.14;82.10
14790;BME280;7486;51.010;10.366;2023-10-19T02:10:28;96566.13;;;6.04;82.71
14790;BME280;7486;51.010;10.366;2023-10-19T02:13:14;96561.75;;;5.98;82.59
14790;BME280;7486;51.010;10.366;2023-10-19T02:16:00;96570.06;;;5.95;83.25
14790;BME280;7486;51.010;10.366;2023-10-19T02:18:45;96571.69;;;5.96;83.60
14790;BME280;7486;51.010;10.366;2023-10-19T02:21:31;96572.84;;;6.00;82.81
14790;BME280;7486;51.010;10.366;2023-10-19T02:24:16;96555.72;;;6.15;82.69
14790;BME280;7486;51.010;10.366;2023-10-19T02:27:02;96550.22;;;6.17;82.02
14790;BME280;7486;51.010;10.366;2023-10-19T02:29:47;96550.81;;;6.19;82.04
14790;BME280;7486;51.010;10.366;2023-10-19T02:32:33;96546.00;;;6.16;82.15
14790;BME280;7486;51.010;10.366;2023-10-19T02:35:18;96535.91;;;5.95;82.00
14790;BME280;7486;51.010;10.366;2023-10-19T02:38:04;96533.03;;;5.96;83.13
14790;BME280;7486;51.010;10.366;2023-10-19T02:40:49;96537.81;;;6.06;83.09
14790;BME280;7486;51.010;10.366;2023-10-19T02:43:36;96491.06;;;5.90;82.85
14790;BME280;7486;51.010;10.366;2023-10-19T02:46:21;96528.34;;;6.23;82.89
14790;BME280;7486;51.010;10.366;2023-10-19T02:49:08;96521.03;;;6.25;82.69
14790;BME280;7486;51.010;10.366;2023-10-19T02:51:53;96520.13;;;6.31;82.63
14790;BME280;7486;51.010;10.366;2023-10-19T02:54:39;96495.38;;;6.20;82.60
14790;BME280;7486;51.010;10.366;2023-10-19T02:57:25;96508.59;;;6.32;82.68
14790;BME280;7486;51.010;10.366;2023-10-19T03:00:11;96512.84;;;6.33;82.58
14790;BME280;7486;51.010;10.366;2023-10-19T03:02:56;96506.50;;;6.23;83.74
14790;BME280;7486;51.010;10.366;2023-10-19T03:05:42;96497.66;;;6.17;83.51
14790;BME280;7486;51.010;10.366;2023-10-19T03:08:28;96498.97;;;6.08;83.87
14790;BME280;7486;51.010;10.366;2023-10-19T03:11:14;96449.56;;;5.80;84.23
14790;BME280;7486;51.010;10.366;2023-10-19T03:13:59;96482.34;;;5.96;84.61
14790;BME280;7486;51.010;10.366;2023-10-19T03:16:45;96490.16;;;6.02;85.27
14790;BME280;7486;51.010;10.366;2023-10-19T03:19:31;96480.38;;;6.09;85.38
14790;BME280;7486;51.010;10.366;2023-10-19T03:22:16;96480.72;;;6.13;85.12
14790;BME280;7486;51.010;10.366;2023-10-19T03:25:01;96476.94;;;5.91;85.97
14790;BME280;7486;51.010;10.366;2023-10-19T03:27:47;96437.06;;;5.76;85.99
14790;BME280;7486;51.010;10.366;2023-10-19T03:30:32;96483.41;;;6.25;85.70
14790;BME280;7486;51.010;10.366;2023-10-19T03:33:17;96485.56;;;6.16;85.79
14790;BME280;7486;51.010;10.366;2023-10-19T03:36:03;96461.22;;;6.20;85.43
14790;BME280;7486;51.010;10.366;2023-10-19T03:38:49;96404.69;;;5.82;85.57
14790;BME280;7486;51.010;10.366;2023-10-19T03:41:35;96465.53;;;6.33;85.15
14790;BME280;7486;51.010;10.366;2023-10-19T03:44:20;96463.75;;;6.45;85.28
14790;BME280;7486;51.010;10.366;2023-10-19T03:47:05;96464.59;;;6.57;84.91
14790;BME280;7486;51.010;10.366;2023-10-19T03:49:53;96460.03;;;6.64;84.50
14790;BME280;7486;51.010;10.366;2023-10-19T03:52:38;96464.44;;;6.71;84.23
14790;BME280;7486;51.010;10.366;2023-10-19T03:55:24;96465.38;;;6.76;84.07
14790;BME280;7486;51.010;10.366;2023-10-19T03:58:09;96456.47;;;6.77;83.62
14790;BME280;7486;51.010;10.366;2023-10-19T04:00:55;96450.75;;;6.80;83.96
14790;BME280;7486;51.010;10.366;2023-10-19T04:03:40;96442.50;;;6.77;83.69
14790;BME280;7486;51.010;10.366;2023-10-19T04:06:26;96450.50;;;6.82;83.52
14790;BME280;7486;51.010;10.366;2023-10-19T04:09:11;96437.81;;;6.79;83.58
14790;BME280;7486;51.010;10.366;2023-10-19T04:11:56;96449.97;;;6.91;84.05
14790;BME280;7486;51.010;10.366;2023-10-19T04:14:41;96446.09;;;6.94;83.45
14790;BME280;7486;51.010;10.366;2023-10-19T04:17:27;96447.69;;;6.95;83.50
14790;BME280;7486;51.010;10.366;2023-10-19T04:20:17;96443.81;;;6.97;83.60
14790;BME280;7486;51.010;10.366;2023-10-19T04:23:02;96436.00;;;6.91;83.63
14790;BME280;7486;51.010;10.366;2023-10-19T04:25:48;96430.63;;;6.86;83.49
14790;BME280;7486;51.010;10.366;2023-10-19T04:28:33;96424.78;;;6.84;84.71
14790;BME280;7486;51.010;10.366;2023-10-19T04:31:20;96424.34;;;6.87;84.37
14790;BME280;7486;51.010;10.366;2023-10-19T04:34:05;96391.94;;;6.75;84.21
14790;BME280;7486;51.010;10.366;2023-10-19T04:36:54;96418.81;;;6.77;85.17
14790;BME280;7486;51.010;10.366;2023-10-19T04:39:40;96415.88;;;6.85;85.00
14790;BME280;7486;51.010;10.366;2023-10-19T04:42:26;96354.44;;;6.49;84.96
14790;BME280;7486;51.010;10.366;2023-10-19T04:45:12;96418.59;;;6.48;87.02
14790;BME280;7486;51.010;10.366;2023-10-19T04:47:58;96426.13;;;6.45;87.02
14790;BME280;7486;51.010;10.366;2023-10-19T04:50:43;96415.31;;;6.64;86.59
14790;BME280;7486;51.010;10.366;2023-10-19T04:53:30;96376.66;;;6.53;85.89
14790;BME280;7486;51.010;10.366;2023-10-19T04:56:16;96409.63;;;6.67;86.56
14790;BME280;7486;51.010;10.366;2023-10-19T04:59:02;96402.22;;;6.76;85.87
14790;BME280;7486;51.010;10.366;2023-10-19T05:01:48;96197.59;;;5.37;85.70
14790;BME280;7486;51.010;10.366;2023-10-19T05:04:33;96409.09;;;6.77;85.70
14790;BME280;7486;51.010;10.366;2023-10-19T05:07:19;96398.06;;;6.68;85.41
14790;BME280;7486;51.010;10.366;2023-10-19T05:10:05;96379.88;;;6.26;87.85
14790;BME280;7486;51.010;10.366;2023-10-19T05:12:51;96406.31;;;6.72;87.09
14790;BME280;7486;51.010;10.366;2023-10-19T05:15:36;96401.66;;;6.86;86.50
14790;BME280;7486;51.010;10.366;2023-10-19T05:18:23;96403.97;;;6.94;86.05
14790;BME280;7486;51.010;10.366;2023-10-19T05:21:08;96405.94;;;6.98;85.79
14790;BME280;7486;51.010;10.366;2023-10-19T05:23:53;96375.81;;;6.83;85.51
14790;BME280;7486;51.010;10.366;2023-10-19T05:26:40;96369.31;;;6.55;87.83
14790;BME280;7486;51.010;10.366;2023-10-19T05:29:26;96411.63;;;6.95;87.48
14790;BME280;7486;51.010;10.366;2023-10-19T05:32:11;96406.28;;;7.02;87.20
14790;BME280;7486;51.010;10.366;2023-10-19T05:34:57;96402.16;;;6.94;88.93
14790;BME280;7486;51.010;10.366;2023-10-19T05:37:45;96408.31;;;7.00;88.88
14790;BME280;7486;51.010;10.366;2023-10-19T05:40:31;96407.63;;;6.93;88.71
14790;BME280;7486;51.010;10.366;2023-10-19T05:43:16;96415.41;;;6.88;89.93
14790;BME280;7486;51.010;10.366;2023-10-19T05:46:01;96410.03;;;6.94;90.57
14790;BME280;7486;51.010;10.366;2023-10-19T05:48:46;96417.06;;;7.12;89.50
14790;BME280;7486;51.010;10.366;2023-10-19T05:51:32;96411.44;;;7.08;89.41
14790;BME280;7486;51.010;10.366;2023-10-19T05:54:17;96421.03;;;7.26;89.06
14790;BME280;7486;51.010;10.366;2023-10-19T05:57:02;96420.13;;;7.20;88.99
14790;BME280;7486;51.010;10.366;2023-10-19T05:59:49;96432.16;;;7.40;88.14
14790;BME280;7486;51.010;10.366;2023-10-19T06:02:35;96430.31;;;7.40;88.00
14790;BME280;7486;51.010;10.366;2023-10-19T06:05:20;96428.97;;;7.49;88.06
14790;BME280;7486;51.010;10.366;2023-10-19T06:08:06;96433.88;;;7.57;87.07
14790;BME280;7486;51.010;10.366;2023-10-19T06:10:51;96440.75;;;7.58;87.21
14790;BME280;7486;51.010;10.366;2023-10-19T06:13:37;96387.75;;;7.32;86.79
14790;BME280;7486;51.010;10.366;2023-10-19T06:16:22;96436.97;;;7.66;86.32
14790;BME280;7486;51.010;10.366;2023-10-19T06:19:08;96386.94;;;7.43;86.68
14790;BME280;7486;51.010;10.366;2023-10-19T06:21:53;96436.16;;;7.77;86.09
14790;BME280;7486;51.010;10.366;2023-10-19T06:24:39;96435.13;;;7.78;86.18
14790;BME280;7486;51.010;10.366;2023-10-19T06:27:24;96429.16;;;7.83;85.75
14790;BME280;7486;51.010;10.366;2023-10-19T06:30:10;96406.72;;;7.68;85.91
14790;BME280;7486;51.010;10.366;2023-10-19T06:32:59;96423.34;;;7.81;85.68
14790;BME280;7486;51.010;10.366;2023-10-19T06:35:46;96414.53;;;7.63;86.88
14790;BME280;7486;51.010;10.366;2023-10-19T06:38:31;96409.34;;;7.57;86.67
14790;BME280;7486;51.010;10.366;2023-10-19T06:41:17;96427.91;;;7.74;86.95
14790;BME280;7486;51.010;10.366;2023-10-19T06:44:03;96428.00;;;7.79;87.00
14790;BME280;7486;51.010;10.366;2023-10-19T06:46:49;96421.94;;;7.78;86.62
14790;BME280;7486;51.010;10.366;2023-10-19T06:49:35;96431.44;;;7.91;86.21
14790;BME280;7486;51.010;10.366;2023-10-19T06:52:20;96431.88;;;7.88;86.18
14790;BME280;7486;51.010;10.366;2023-10-19T06:55:07;96431.88;;;7.99;86.09
14790;BME280;7486;51.010;10.366;2023-10-19T06:57:53;96437.50;;;7.91;86.03
14790;BME280;7486;51.010;10.366;2023-10-19T07:00:39;96409.69;;;7.84;86.89
14790;BME280;7486;51.010;10.366;2023-10-19T07:03:24;96426.03;;;7.97;87.03
14790;BME280;7486;51.010;10.366;2023-10-19T07:06:09;96428.09;;;7.95;87.21
14790;BME280;7486;51.010;10.366;2023-10-19T07:08:59;96364.81;;;7.67;87.02
14790;BME280;7486;51.010;10.366;2023-10-19T07:11:44;96416.06;;;8.11;86.92
14790;BME280;7486;51.010;10.366;2023-10-19T07:14:32;96409.03;;;8.16;86.88
14790;BME280;7486;51.010;10.366;2023-10-19T07:17:18;96403.63;;;8.23;87.34
14790;BME280;7486;51.010;10.366;2023-10-19T07:20:05;96394.09;;;8.22;87.38
14790;BME280;7486;51.010;10.366;2023-10-19T07:22:51;96406.59;;;8.27;87.59
14790;BME280;7486;51.010;10.366;2023-10-19T07:25:37;96414.97;;;8.35;87.68
14790;BME280;7486;51.010;10.366;2023-10-19T07:28:23;96358.09;;;7.88;87.53
14790;BME280;7486;51.010;10.366;2023-10-19T07:31:08;96424.91;;;8.33;87.54
14790;BME280;7486;51.010;10.366;2023-10-19T07:33:54;96425.59;;;8.40;87.92
14790;BME280;7486;51.010;10.366;2023-10-19T07:36:39;96419.66;;;8.33;86.93
14790;BME280;7486;51.010;10.366;2023-10-19T07:39:26;96426.63;;;8.11;88.66
14790;BME280;7486;51.010;10.366;2023-10-19T07:42:12;96430.13;;;8.28;88.26
14790;BME280;7486;51.010;10.366;2023-10-19T07:44:57;96423.53;;;8.42;88.35
14790;BME280;7486;51.010;10.366;2023-10-19T07:47:42;96426.34;;;8.52;88.24
14790;BME280;7486;51.010;10.366;2023-10-19T07:50:28;96423.91;;;8.62;87.98
14790;BME280;7486;51.010;10.366;2023-10-19T07:53:14;96418.81;;;8.73;87.34
14790;BME280;7486;51.010;10.366;2023-10-19T07:55:59;96414.16;;;8.80;87.34
14790;BME280;7486;51.010;10.366;2023-10-19T07:58:44;96385.84;;;8.75;86.94
14790;BME280;7486;51.010;10.366;2023-10-19T08:01:30;96394.94;;;8.67;87.16
14790;BME280;7486;51.010;10.366;2023-10-19T08:04:15;96412.47;;;8.73;87.40
14790;BME280;7486;51.010;10.366;2023-10-19T08:07:01;96413.22;;;8.86;87.50
14790;BME280;7486;51.010;10.366;2023-10-19T08:09:46;96406.50;;;8.95;87.89
14790;BME280;7486;51.010;10.366;2023-10-19T08:12:32;96365.38;;;8.82;87.39
14790;BME280;7486;51.010;10.366;2023-10-19T08:15:18;96391.38;;;9.07;87.27
14790;BME280;7486;51.010;10.366;2023-10-19T08:18:04;96392.88;;;9.19;87.09
14790;BME280;7486;51.010;10.366;2023-10-19T08:20:49;96377.53;;;9.16;86.70
14790;BME280;7486;51.010;10.366;2023-10-19T08:23:35;96401.94;;;9.23;86.77
14790;BME280;7486;51.010;10.366;2023-10-19T08:26:20;96402.16;;;9.22;86.18
14790;BME280;7486;51.010;10.366;2023-10-19T08:29:05;96401.69;;;9.25;86.12
14790;BME280;7486;51.010;10.366;2023-10-19T08:31:51;96406.38;;;9.35;86.48
14790;BME280;7486;51.010;10.366;2023-10-19T08:34:36;96404.59;;;9.40;86.24
14790;BME280;7486;51.010;10.366;2023-10-19T08:37:22;96398.81;;;9.43;86.04
14790;BME280;7486;51.010;10.366;2023-10-19T08:40:12;96399.31;;;9.40;85.97
14790;BME280;7486;51.010;10.366;2023-10-19T08:42:57;96377.03;;;9.19;86.35
14790;BME280;7486;51.010;10.366;2023-10-19T08:45:42;96414.28;;;9.51;86.29
14790;BME280;7486;51.010;10.366;2023-10-19T08:48:28;96416.41;;;9.54;85.95
14790;BME280;7486;51.010;10.366;2023-10-19T08:51:18;96420.09;;;9.53;86.17
14790;BME280;7486;51.010;10.366;2023-10-19T08:54:05;96410.50;;;9.47;86.11
14790;BME280;7486;51.010;10.366;2023-10-19T08:56:52;96417.25;;;9.38;86.39
14790;BME280;7486;51.010;10.366;2023-10-19T08:59:37;96421.41;;;9.34;86.99
14790;BME280;7486;51.010;10.366;2023-10-19T09:02:23;96350.81;;;8.96;87.25
14790;BME280;7486;51.010;10.366;2023-10-19T09:05:08;96403.38;;;9.31;86.89
14790;BME280;7486;51.010;10.366;2023-10-19T09:07:54;96324.91;;;8.77;87.92
14790;BME280;7486;51.010;10.366;2023-10-19T09:10:40;96393.69;;;9.20;88.20
14790;BME280;7486;51.010;10.366;2023-10-19T09:13:25;96393.69;;;9.20;88.80
14790;BME280;7486;51.010;10.366;2023-10-19T09:16:11;96373.44;;;9.09;88.44
14790;BME280;7486;51.010;10.366;2023-10-19T09:18:57;96312.97;;;8.74;89.19
14790;BME280;7486;51.010;10.366;2023-10-19T09:21:42;96395.13;;;9.28;89.51
14790;BME280;7486;51.010;10.366;2023-10-19T09:24:28;96388.19;;;9.38;89.58
14790;BME280;7486;51.010;10.366;2023-10-19T09:27:19;96389.38;;;9.47;89.34
14790;BME280;7486;51.010;10.366;2023-10-19T09:30:07;96395.41;;;9.64;88.84
14790;BME280;7486;51.010;10.366;2023-10-19T09:32:54;96394.78;;;9.57;88.02
14790;BME280;7486;51.010;10.366;2023-10-19T09:35:40;96396.03;;;9.71;88.55
14790;BME280;7486;51.010;10.366;2023-10-19T09:38:26;96388.47;;;9.25;89.40
14790;BME280;7486;51.010;10.366;2023-10-19T09:41:17;96387.00;;;9.67;90.48
14790;BME280;7486;51.010;10.366;2023-10-19T09:44:04;96341.31;;;9.50;89.02
14790;BME280;7486;51.010;10.366;2023-10-19T09:46:54;96369.34;;;9.51;89.12
14790;BME280;7486;51.010;10.366;2023-10-19T09:49:42;96370.66;;;8.99;95.29
14790;BME280;7486;51.010;10.366;2023-10-19T09:52:29;96375.25;;;9.25;97.51
14790;BME280;7486;51.010;10.366;2023-10-19T09:55:34;96359.19;;;9.43;98.27
14790;BME280;7486;51.010;10.366;2023-10-19T09:58:36;96368.91;;;9.59;99.14
14790;BME280;7486;51.010;10.366;2023-10-19T10:01:22;96359.66;;;9.79;98.86
14790;BME280;7486;51.010;10.366;2023-10-19T10:04:30;96360.88;;;9.93;96.25
14790;BME280;7486;51.010;10.366;2023-10-19T10:07:17;96357.81;;;10.28;93.84
14790;BME280;7486;51.010;10.366;2023-10-19T10:10:21;96267.56;;;9.97;90.52
14790;BME280;7486;51.010;10.366;2023-10-19T10:16:13;96353.56;;;11.12;86.91
14790;BME280;7486;51.010;10.366;2023-10-19T10:18:59;96360.38;;;11.03;86.52
14790;BME280;7486;51.010;10.366;2023-10-19T10:22:12;96358.13;;;11.21;86.19
14790;BME280;7486;51.010;10.366;2023-10-19T10:24:59;96352.03;;;11.21;85.74
14790;BME280;7486;51.010;10.366;2023-10-19T10:27:51;96359.34;;;11.51;84.96
14790;BME280;7486;51.010;10.366;2023-10-19T10:30:36;96359.19;;;11.57;83.94
14790;BME280;7486;51.010;10.366;2023-10-19T10:33:46;96351.63;;;11.44;85.24
14790;BME280;7486;51.010;10.366;2023-10-19T10:39:42;96347.69;;;11.05;86.29
14790;BME280;7486;51.010;10.366;2023-10-19T10:42:27;96337.44;;;10.82;89.81
14790;BME280;7486;51.010;10.366;2023-10-19T10:45:19;96284.63;;;11.02;87.94
14790;BME280;7486;51.010;10.366;2023-10-19T10:48:15;96341.06;;;11.49;86.39
14790;BME280;7486;51.010;10.366;2023-10-19T10:51:00;96329.72;;;11.12;87.32
14790;BME280;7486;51.010;10.366;2023-10-19T10:53:50;96315.59;;;11.01;88.44
14790;BME280;7486;51.010;10.366;2023-10-19T10:56:40;96334.38;;;11.00;90.36
14790;BME280;7486;51.010;10.366;2023-10-19T10:59:25;96322.47;;;11.44;90.82
14790;BME280;7486;51.010;10.366;2023-10-19T11:02:17;96317.41;;;11.90;88.93
14790;BME280;7486;51.010;10.366;2023-10-19T11:05:03;96308.44;;;12.16;86.88
14790;BME280;7486;51.010;10.366;2023-10-19T11:08:16;96311.09;;;12.16;85.40
14790;BME280;7486;51.010;10.366;2023-10-19T11:11:06;96316.91;;;12.03;84.56
14790;BME280;7486;51.010;10.366;2023-10-19T11:13:52;96299.47;;;12.22;85.04
14790;BME280;7486;51.010;10.366;2023-10-19T11:16:37;96298.69;;;12.47;83.45
14790;BME280;7486;51.010;10.366;2023-10-19T11:19:37;96305.91;;;12.61;83.36
14790;BME280;7486;51.010;10.366;2023-10-19T11:22:24;96296.34;;;12.76;82.59
14790;BME280;7486;51.010;10.366;2023-10-19T11:25:20;96297.41;;;12.90;81.66
14790;BME280;7486;51.010;10.366;2023-10-19T11:28:16;96301.38;;;12.72;81.62
14790;BME280;7486;51.010;10.366;2023-10-19T11:31:21;96261.78;;;12.25;81.10
14790;BME280;7486;51.010;10.366;2023-10-19T11:34:07;96282.22;;;12.55;81.67
14790;BME280;7486;51.010;10.366;2023-10-19T11:36:53;96290.50;;;12.73;81.51
14790;BME280;7486;51.010;10.366;2023-10-19T11:39:39;96305.91;;;12.66;80.71
14790;BME280;7486;51.010;10.366;2023-10-19T11:42:24;96306.44;;;12.89;80.74
14790;BME280;7486;51.010;10.366;2023-10-19T11:45:09;96248.25;;;12.57;79.87
14790;BME280;7486;51.010;10.366;2023-10-19T11:47:55;96274.56;;;12.79;79.99
14790;BME280;7486;51.010;10.366;2023-10-19T11:50:40;96306.44;;;12.58;80.63
14790;BME280;7486;51.010;10.366;2023-10-19T11:53:25;96301.63;;;12.45;80.89
14790;BME280;7486;51.010;10.366;2023-10-19T11:56:12;96255.09;;;11.97;81.78
14790;BME280;7486;51.010;10.366;2023-10-19T11:58:58;96307.41;;;12.27;81.67
14790;BME280;7486;51.010;10.366;2023-10-19T12:01:44;96307.44;;;12.47;81.39
14790;BME280;7486;51.010;10.366;2023-10-19T12:04:29;96305.91;;;12.66;80.85
14790;BME280;7486;51.010;10.366;2023-10-19T12:07:15;96310.69;;;12.80;79.93
14790;BME280;7486;51.010;10.366;2023-10-19T12:10:00;96305.38;;;12.90;79.94
14790;BME280;7486;51.010;10.366;2023-10-19T12:12:45;96288.38;;;12.65;79.50
14790;BME280;7486;51.010;10.366;2023-10-19T12:15:45;96297.41;;;12.90;80.47
14790;BME280;7486;51.010;10.366;2023-10-19T12:18:30;96301.66;;;12.91;80.59
14790;BME280;7486;51.010;10.366;2023-10-19T12:21:15;96289.66;;;12.98;80.63
14790;BME280;7486;51.010;10.366;2023-10-19T12:24:01;96288.09;;;12.97;80.72
14790;BME280;7486;51.010;10.366;2023-10-19T12:26:47;96288.38;;;13.01;81.31
14790;BME280;7486;51.010;10.366;2023-10-19T12:29:32;96280.41;;;12.91;81.64
14790;BME280;7486;51.010;10.366;2023-10-19T12:32:17;96287.53;;;13.05;83.00
14790;BME280;7486;51.010;10.366;2023-10-19T12:35:02;96282.47;;;13.09;80.91
14790;BME280;7486;51.010;10.366;2023-10-19T12:37:48;96275.06;;;13.11;80.82
14790;BME280;7486;51.010;10.366;2023-10-19T12:40:33;96272.13;;;13.07;81.29
14790;BME280;7486;51.010;10.366;2023-10-19T12:43:20;96268.97;;;13.00;82.30
14790;BME280;7486;51.010;10.366;2023-10-19T12:46:05;96238.41;;;12.88;80.88
14790;BME280;7486;51.010;10.366;2023-10-19T12:48:51;96279.22;;;13.37;80.38
14790;BME280;7486;51.010;10.366;2023-10-19T12:51:37;96237.81;;;13.21;78.46
14790;BME280;7486;51.010;10.366;2023-10-19T12:54:22;96255.03;;;13.34;78.16
14790;BME280;7486;51.010;10.366;2023-10-19T12:57:08;96266.69;;;13.53;77.74
14790;BME280;7486;51.010;10.366;2023-10-19T12:59:53;96267.16;;;13.70;77.84
14790;BME280;7486;51.010;10.366;2023-10-19T13:02:38;96227.06;;;13.61;77.93
14790;BME280;7486;51.010;10.366;2023-10-19T13:05:23;96264.69;;;13.94;77.08
14790;BME280;7486;51.010;10.366;2023-10-19T13:08:10;96267.66;;;13.77;77.22
14790;BME280;7486;51.010;10.366;2023-10-19T13:10:55;96259.97;;;13.76;76.56
14790;BME280;7486;51.010;10.366;2023-10-19T13:13:53;96240.81;;;13.73;76.92
14790;BME280;7486;51.010;10.366;2023-10-19T13:16:38;96246.06;;;13.94;77.57
14790;BME280;7486;51.010;10.366;2023-10-19T13:19:24;96239.06;;;13.98;77.57
14790;BME280;7486;51.010;10.366;2023-10-19T13:22:10;96245.44;;;14.02;77.38
14790;BME280;7486;51.010;10.366;2023-10-19T13:24:55;96247.53;;;14.10;77.66
14790;BME280;7486;51.010;10.366;2023-10-19T13:27:40;96236.34;;;14.08;77.08
14790;BME280;7486;51.010;10.366;2023-10-19T13:30:26;96240.59;;;14.14;77.06
14790;BME280;7486;51.010;10.366;2023-10-19T13:33:11;96242.66;;;14.22;77.06
14790;BME280;7486;51.010;10.366;2023-10-19T13:35:56;96230.63;;;14.30;76.29
14790;BME280;7486;51.010;10.366;2023-10-19T13:38:41;96228.53;;;14.27;74.72
14790;BME280;7486;51.010;10.366;2023-10-19T13:41:27;96234.66;;;14.27;73.93
14790;BME280;7486;51.010;10.366;2023-10-19T13:44:12;96233.03;;;14.26;73.61
14790;BME280;7486;51.010;10.366;2023-10-19T13:46:58;96221.47;;;14.07;74.15
14790;BME280;7486;51.010;10.366;2023-10-19T13:49:43;96226.00;;;14.06;74.60
14790;BME280;7486;51.010;10.366;2023-10-19T13:52:29;96225.25;;;13.96;74.60
14790;BME280;7486;51.010;10.366;2023-10-19T13:55:16;96216.78;;;13.94;74.93
14790;BME280;7486;51.010;10.366;2023-10-19T13:58:04;96208.38;;;13.77;74.56
14790;BME280;7486;51.010;10.366;2023-10-19T14:00:49;96210.97;;;13.82;75.83
14790;BME280;7486;51.010;10.366;2023-10-19T14:03:35;96203.78;;;13.82;76.42
14790;BME280;7486;51.010;10.366;2023-10-19T14:06:21;96221.59;;;13.87;76.37
14790;BME280;7486;51.010;10.366;2023-10-19T14:09:06;96213.63;;;13.87;77.09
14790;BME280;7486;51.010;10.366;2023-10-19T14:11:51;96215.69;;;13.95;76.91
14790;BME280;7486;51.010;10.366;2023-10-19T14:14:37;96210.59;;;13.98;76.18
14790;BME280;7486;51.010;10.366;2023-10-19T14:17:22;96208.75;;;13.99;76.54
14790;BME280;7486;51.010;10.366;2023-10-19T14:20:08;96202.94;;;13.92;76.56
14790;BME280;7486;51.010;10.366;2023-10-19T14:22:55;96209.31;;;13.91;76.41
14790;BME280;7486;51.010;10.366;2023-10-19T14:25:40;96205.84;;;13.95;76.45
14790;BME280;7486;51.010;10.366;2023-10-19T14:28:26;96204.47;;;13.98;76.22
14790;BME280;7486;51.010;10.366;2023-10-19T14:31:11;96207.75;;;13.90;76.30
14790;BME280;7486;51.010;10.366;2023-10-19T14:33:57;96184.34;;;13.87;76.08
14790;BME280;7486;51.010;10.366;2023-10-19T14:36:42;96205.84;;;13.95;75.67
14790;BME280;7486;51.010;10.366;2023-10-19T14:39:28;96201.06;;;13.92;75.46
14790;BME280;7486;51.010;10.366;2023-10-19T14:42:13;96194.53;;;13.74;75.95
14790;BME280;7486;51.010;10.366;2023-10-19T14:44:59;96159.19;;;13.64;75.94
14790;BME280;7486;51.010;10.366;2023-10-19T14:47:49;96188.06;;;13.86;76.13
14790;BME280;7486;51.010;10.366;2023-10-19T14:50:34;96197.91;;;13.85;75.49
14790;BME280;7486;51.010;10.366;2023-10-19T14:53:20;96195.00;;;13.87;75.90
14790;BME280;7486;51.010;10.366;2023-10-19T14:56:05;96197.91;;;13.85;75.95